createdAt,value
2022-12-05T00:00:49.107Z,100198.91
2022-12-05T00:01:50.637Z,100195.31
2022-12-05T00:02:52.206Z,100196.66
2022-12-05T00:03:54.482Z,100206.06
2022-12-05T00:04:55.956Z,100202.19
2022-12-05T00:05:57.482Z,100209.44
2022-12-05T00:06:59.017Z,100196.66
2022-12-05T00:08:00.641Z,100209.69
2022-12-05T00:09:02.538Z,100210.53
2022-12-05T00:10:05.110Z,100210.53
2022-12-05T00:11:33.366Z,100209.44
2022-12-05T00:12:35.112Z,100208.59
2022-12-05T00:13:36.963Z,100197.50
2022-12-05T00:14:38.821Z,100213.28
2022-12-05T00:15:40.819Z,100213.28
2022-12-05T00:16:43.092Z,100217.75
2022-12-05T00:17:45.006Z,100219.69
2022-12-05T00:18:47.008Z,100224.16
2022-12-05T00:19:53.575Z,100221.38
2022-12-05T00:20:58.330Z,100221.38
2022-12-05T00:22:00.288Z,100223.31
2022-12-05T00:23:02.074Z,100217.16
2022-12-05T00:24:04.228Z,100223.31
2022-12-05T00:25:06.256Z,100221.63
2022-12-05T00:26:07.721Z,100217.75
2022-12-05T00:27:09.230Z,100223.06
2022-12-05T00:28:11.041Z,100226.66
2022-12-05T00:29:12.517Z,100227.50
2022-12-05T00:30:14.006Z,100223.63
2022-12-05T00:31:16.720Z,100224.22
2022-12-05T00:32:18.465Z,100231.72
2022-12-05T00:33:19.968Z,100230.66
2022-12-05T00:34:21.475Z,100225.09
2022-12-05T00:35:22.953Z,100232.56
2022-12-05T00:36:25.550Z,100228.72
2022-12-05T00:37:26.992Z,100231.50
2022-12-05T00:38:28.470Z,100232.34
2022-12-05T00:39:30.189Z,100232.34
2022-12-05T00:40:31.654Z,100230.41
2022-12-05T00:41:33.147Z,100226.53
2022-12-05T00:42:34.718Z,100237.63
2022-12-05T00:43:36.307Z,100232.94
2022-12-05T00:44:37.825Z,100232.94
2022-12-05T00:45:39.463Z,100239.56
2022-12-05T00:46:41.074Z,100237.38
2022-12-05T00:47:42.546Z,100231.25
2022-12-05T00:48:44.052Z,100232.09
2022-12-05T00:49:45.536Z,100228.47
2022-12-05T00:50:47.009Z,100222.91
2022-12-05T00:51:48.533Z,100222.91
2022-12-05T00:52:50.034Z,100227.63
2022-12-05T00:53:51.505Z,100225.69
2022-12-05T00:54:53.049Z,100227.63
2022-12-05T00:55:54.480Z,100223.38
2022-12-05T00:56:58.532Z,100230.66
2022-12-05T00:58:00.024Z,100228.94
2022-12-05T00:59:01.792Z,100228.09
2022-12-05T01:00:04.048Z,100226.41
2022-12-05T01:01:09.381Z,100232.81
2022-12-05T01:02:10.956Z,100229.44
2022-12-05T01:03:12.438Z,100228.59
2022-12-05T01:04:15.092Z,100233.06
2022-12-05T01:05:16.583Z,100236.69
2022-12-05T01:06:18.177Z,100238.34
2022-12-05T01:07:19.722Z,100230.03
2022-12-05T01:08:21.171Z,100235.59
2022-12-05T01:09:22.738Z,100237.53
2022-12-05T01:10:24.217Z,100239.44
2022-12-05T01:11:25.949Z,100239.69
2022-12-05T01:12:28.190Z,100237.78
2022-12-05T01:13:29.812Z,100237.78
2022-12-05T01:14:31.362Z,100251.66
2022-12-05T01:15:36.258Z,100245.25
2022-12-05T01:16:38.346Z,100248.28
2022-12-05T01:17:39.846Z,100246.09
2022-12-05T01:18:41.388Z,100246.09
2022-12-05T01:19:42.907Z,100248.03
2022-12-05T01:20:44.397Z,100251.66
2022-12-05T01:21:46.971Z,100249.97
2022-12-05T01:22:48.446Z,100253.56
2022-12-05T01:23:49.902Z,100248.88
2022-12-05T01:24:51.441Z,100245.25
2022-12-05T01:25:53.320Z,100257.19
2022-12-05T01:26:54.891Z,100255.25
2022-12-05T01:27:56.395Z,100261.91
2022-12-05T01:28:57.949Z,100257.19
2022-12-05T01:29:59.747Z,100254.41
2022-12-05T01:31:04.243Z,100258.88
2022-12-05T01:32:05.988Z,100257.19
2022-12-05T01:33:07.578Z,100254.41
2022-12-05T01:34:10.488Z,100254.41
2022-12-05T01:35:12.050Z,100260.56
2022-12-05T01:36:13.481Z,100255.84
2022-12-05T01:37:15.013Z,100248.63
2022-12-05T01:38:16.448Z,100247.53
2022-12-05T01:39:17.971Z,100251.13
2022-12-05T01:40:19.544Z,100247.53
2022-12-05T01:41:22.020Z,100251.75
2022-12-05T01:42:26.298Z,100247.78
2022-12-05T01:43:28.062Z,100256.09
2022-12-05T01:44:29.549Z,100250.81
2022-12-05T01:45:37.996Z,100256.09
2022-12-05T01:46:40.527Z,100254.66
2022-12-05T01:47:41.965Z,100253.56
2022-12-05T01:48:43.524Z,100256.59
2022-12-05T01:49:45.017Z,100254.66
2022-12-05T01:50:46.731Z,100265.50
2022-12-05T01:51:50.397Z,100262.75
2022-12-05T01:52:51.889Z,100254.16
2022-12-05T01:53:53.418Z,100264.44
2022-12-05T01:54:55.888Z,100268.28
2022-12-05T01:55:57.365Z,100265.78
2022-12-05T01:57:00.231Z,100272.41
2022-12-05T01:58:05.268Z,100267.69
2022-12-05T01:59:07.210Z,100268.53
2022-12-05T02:00:10.350Z,100269.63
2022-12-05T02:01:14.701Z,100270.47
2022-12-05T02:02:16.274Z,100264.94
2022-12-05T02:03:18.431Z,100272.41
2022-12-05T02:04:19.989Z,100268.78
2022-12-05T02:05:22.430Z,100273.50
2022-12-05T02:06:24.359Z,100267.09
2022-12-05T02:07:25.814Z,100264.09
2022-12-05T02:08:27.776Z,100268.78
2022-12-05T02:09:29.289Z,100271.56
2022-12-05T02:10:31.605Z,100271.56
2022-12-05T02:11:33.343Z,100271.56
2022-12-05T02:12:34.858Z,100270.47
2022-12-05T02:13:39.311Z,100267.69
2022-12-05T02:14:46.017Z,100276.88
2022-12-05T02:16:13.783Z,100275.53
2022-12-05T02:17:23.982Z,100263.59
2022-12-05T02:18:28.683Z,100271.66
2022-12-05T02:19:30.298Z,100278.91
2022-12-05T02:20:34.874Z,100275.53
2022-12-05T02:21:39.269Z,100276.38
2022-12-05T02:22:46.982Z,100279.41
2022-12-05T02:23:52.908Z,100278.31
2022-12-05T02:25:14.783Z,100273.59
2022-12-05T02:26:34.852Z,100288.31
2022-12-05T02:27:36.313Z,100277.22
2022-12-05T02:28:56.615Z,100286.38
2022-12-05T02:30:04.305Z,100287.22
2022-12-05T02:31:10.850Z,100288.56
2022-12-05T02:32:18.160Z,100284.69
2022-12-05T02:33:22.295Z,100286.63
2022-12-05T02:34:44.003Z,100286.63
2022-12-05T02:35:55.917Z,100281.91
2022-12-05T02:37:17.714Z,100276.88
2022-12-05T02:38:21.958Z,100284.09
2022-12-05T02:39:26.351Z,100277.72
2022-12-05T02:40:31.726Z,100286.03
2022-12-05T02:41:35.971Z,100286.28
2022-12-05T02:42:49.462Z,100273.25
2022-12-05T02:43:50.890Z,100276.03
2022-12-05T02:44:53.992Z,100276.88
2022-12-05T02:45:56.799Z,100277.72
2022-12-05T02:46:58.408Z,100280.47
2022-12-05T02:48:00.065Z,100282.41
2022-12-05T02:49:02.833Z,100270.22
2022-12-05T02:50:04.647Z,100275.78
2022-12-05T02:51:06.368Z,100275.53
2022-12-05T02:52:08.755Z,100273.84
2022-12-05T02:53:12.043Z,100276.38
2022-12-05T02:54:14.518Z,100277.47
2022-12-05T02:55:16.201Z,100269.97
2022-12-05T02:56:17.689Z,100264.44
2022-12-05T02:57:19.155Z,100273.84
2022-12-05T02:58:22.124Z,100286.03
2022-12-05T02:59:23.940Z,100274.09
2022-12-05T03:00:25.620Z,100276.88
2022-12-05T03:01:28.525Z,100283.25
2022-12-05T03:02:31.494Z,100292.44
2022-12-05T03:03:33.020Z,100286.63
2022-12-05T03:04:34.763Z,100284.69
2022-12-05T03:05:41.330Z,100285.53
2022-12-05T03:06:47.049Z,100294.69
2022-12-05T03:07:49.021Z,100291.72
2022-12-05T03:09:01.033Z,100297.25
2022-12-05T03:10:04.033Z,100297.00
2022-12-05T03:11:05.655Z,100300.63
2022-12-05T03:12:11.811Z,100301.47
2022-12-05T03:13:18.154Z,100294.25
2022-12-05T03:14:21.732Z,100298.44
2022-12-05T03:15:24.908Z,100298.44
2022-12-05T03:16:38.660Z,100299.31
2022-12-05T03:17:42.157Z,100301.00
2022-12-05T03:18:55.790Z,100300.16
2022-12-05T03:19:58.969Z,100306.78
2022-12-05T03:21:02.864Z,100300.88
2022-12-05T03:22:07.631Z,100312.19
2022-12-05T03:23:13.384Z,100309.41
2022-12-05T03:24:15.166Z,100315.59
2022-12-05T03:25:16.759Z,100310.03
2022-12-05T03:26:18.379Z,100322.00
2022-12-05T03:27:27.483Z,100311.13
2022-12-05T03:28:31.616Z,100313.91
2022-12-05T03:29:39.255Z,100316.69
2022-12-05T03:30:40.800Z,100320.53
2022-12-05T03:31:46.260Z,100322.09
2022-12-05T03:33:03.938Z,100315.47
2022-12-05T03:34:06.138Z,100321.03
2022-12-05T03:35:26.321Z,100316.31
2022-12-05T03:36:33.208Z,100310.16
2022-12-05T03:37:34.634Z,100322.94
2022-12-05T03:38:56.426Z,100321.03
2022-12-05T03:40:04.720Z,100315.47
2022-12-05T03:41:29.530Z,100323.78
2022-12-05T03:42:31.746Z,100325.38
2022-12-05T03:43:34.469Z,100332.00
2022-12-05T03:44:38.131Z,100322.59
2022-12-05T03:45:42.159Z,100325.38
2022-12-05T03:46:44.550Z,100322.22
2022-12-05T03:47:50.404Z,100333.31
2022-12-05T03:49:00.885Z,100325.84
2022-12-05T03:50:12.619Z,100324.75
2022-12-05T03:51:14.446Z,100327.44
2022-12-05T03:52:20.673Z,100321.28
2022-12-05T03:53:29.923Z,100331.28
2022-12-05T03:54:32.845Z,100332.97
2022-12-05T03:55:35.443Z,100333.81
2022-12-05T03:56:41.913Z,100335.50
2022-12-05T03:57:50.505Z,100336.84
2022-12-05T03:58:56.770Z,100345.16
2022-12-05T03:59:58.488Z,100338.78
2022-12-05T04:01:00.644Z,100340.72
2022-12-05T04:02:03.717Z,100349.03
2022-12-05T04:03:09.535Z,100349.75
2022-12-05T04:04:12.656Z,100353.16
2022-12-05T04:05:21.408Z,100344.25
2022-12-05T04:06:23.205Z,100347.00
2022-12-05T04:07:24.721Z,100344.00
2022-12-05T04:08:27.420Z,100347.38
2022-12-05T04:09:30.080Z,100341.81
2022-12-05T04:10:32.670Z,100351.56
2022-12-05T04:11:34.946Z,100347.72
2022-12-05T04:12:36.445Z,100338.31
2022-12-05T04:13:40.661Z,100349.66
2022-12-05T04:14:43.449Z,100353.25
2022-12-05T04:16:11.915Z,100358.81
2022-12-05T04:17:18.317Z,100354.09
2022-12-05T04:18:20.090Z,100350.25
2022-12-05T04:19:26.240Z,100344.25
2022-12-05T04:20:48.096Z,100347.97
2022-12-05T04:21:50.528Z,100355.69
2022-12-05T04:22:52.107Z,100356.28
2022-12-05T04:24:13.518Z,100352.19
2022-12-05T04:25:33.358Z,100349.16
2022-12-05T04:26:34.850Z,100353.63
2022-12-05T04:27:40.949Z,100358.09
2022-12-05T04:28:56.954Z,100359.41
2022-12-05T04:30:02.762Z,100352.56
2022-12-05T04:31:04.315Z,100360.63
2022-12-05T04:32:06.865Z,100352.06
2022-12-05T04:33:10.186Z,100357.84
2022-12-05T04:34:12.866Z,100359.53
2022-12-05T04:35:18.866Z,100361.47
2022-12-05T04:36:30.186Z,100356.38
2022-12-05T04:37:31.720Z,100360.88
2022-12-05T04:38:51.704Z,100365.34
2022-12-05T04:40:01.590Z,100367.03
2022-12-05T04:41:03.976Z,100367.03
2022-12-05T04:42:06.496Z,100364.25
2022-12-05T04:43:08.028Z,100361.47
2022-12-05T04:44:10.508Z,100350.97
2022-12-05T04:45:12.189Z,100361.22
2022-12-05T04:46:13.920Z,100355.09
2022-12-05T04:47:15.474Z,100357.63
2022-12-05T04:48:16.974Z,100345.69
2022-12-05T04:49:20.047Z,100353.75
2022-12-05T04:50:21.575Z,100358.47
2022-12-05T04:51:23.991Z,100359.31
2022-12-05T04:52:25.529Z,100350.97
2022-12-05T04:53:27.552Z,100349.03
2022-12-05T04:54:32.685Z,100345.19
2022-12-05T04:55:34.830Z,100342.16
2022-12-05T04:56:36.628Z,100343.84
2022-12-05T04:57:41.808Z,100345.78
2022-12-05T04:58:43.271Z,100350.00
2022-12-05T04:59:44.794Z,100338.91
2022-12-05T05:00:46.321Z,100350.38
2022-12-05T05:01:51.974Z,100348.44
2022-12-05T05:02:59.306Z,100355.69
2022-12-05T05:04:30.063Z,100359.53
2022-12-05T05:05:31.547Z,100346.75
2022-12-05T05:06:33.130Z,100353.38
2022-12-05T05:07:42.393Z,100355.06
2022-12-05T05:08:50.585Z,100344.81
2022-12-05T05:09:52.066Z,100349.28
2022-12-05T05:11:02.414Z,100344.81
2022-12-05T05:12:03.993Z,100343.34
2022-12-05T05:13:05.451Z,100337.22
2022-12-05T05:14:06.999Z,100335.44
2022-12-05T05:15:08.660Z,100333.59
2022-12-05T05:16:18.314Z,100334.84
2022-12-05T05:17:19.973Z,100330.38
2022-12-05T05:18:21.458Z,100336.28
2022-12-05T05:19:22.985Z,100337.72
2022-12-05T05:20:24.489Z,100347.47
2022-12-05T05:21:29.543Z,100340.84
2022-12-05T05:22:31.033Z,100343.38
2022-12-05T05:23:32.561Z,100352.56
2022-12-05T05:24:34.034Z,100347.00
2022-12-05T05:25:35.541Z,100355.53
2022-12-05T05:26:38.181Z,100352.56
2022-12-05T05:27:39.655Z,100352.06
2022-12-05T05:28:41.212Z,100352.91
2022-12-05T05:29:42.671Z,100349.28
2022-12-05T05:30:44.168Z,100348.22
2022-12-05T05:31:45.784Z,100347.13
2022-12-05T05:32:47.367Z,100355.44
2022-12-05T05:33:49.706Z,100355.19
2022-12-05T05:34:51.245Z,100353.25
2022-12-05T05:35:52.731Z,100344.34
2022-12-05T05:36:54.244Z,100351.81
2022-12-05T05:37:55.808Z,100355.19
2022-12-05T05:38:58.003Z,100331.81
2022-12-05T05:39:59.805Z,100352.41
2022-12-05T05:41:01.735Z,100365.44
2022-12-05T05:42:03.261Z,100356.53
2022-12-05T05:43:04.693Z,100344.34
2022-12-05T05:44:06.286Z,100353.75
2022-12-05T05:45:08.065Z,100353.75
2022-12-05T05:46:10.009Z,100354.34
2022-12-05T05:47:11.617Z,100357.13
2022-12-05T05:48:13.058Z,100358.81
2022-12-05T05:49:14.521Z,100354.94
2022-12-05T05:50:21.197Z,100357.72
2022-12-05T05:51:25.694Z,100362.19
2022-12-05T05:52:27.181Z,100363.03
2022-12-05T05:53:28.709Z,100351.91
2022-12-05T05:54:30.253Z,100356.38
2022-12-05T05:55:31.707Z,100363.41
2022-12-05T05:56:33.229Z,100354.25
2022-12-05T05:57:35.105Z,100364.25
2022-12-05T05:58:36.829Z,100361.69
2022-12-05T05:59:38.370Z,100354.00
2022-12-05T06:00:39.870Z,100362.31
2022-12-05T06:01:41.337Z,100369.53
2022-12-05T06:02:43.056Z,100368.47
2022-12-05T06:03:44.799Z,100379.31
2022-12-05T06:04:46.609Z,100384.84
2022-12-05T06:05:56.313Z,100380.41
2022-12-05T06:06:57.803Z,100380.41
2022-12-05T06:07:59.414Z,100381.72
2022-12-05T06:09:01.010Z,100381.72
2022-12-05T06:10:02.688Z,100379.22
2022-12-05T06:11:11.189Z,100378.22
2022-12-05T06:12:12.689Z,100379.91
2022-12-05T06:13:14.198Z,100381.59
2022-12-05T06:14:15.815Z,100388.59
2022-12-05T06:15:17.414Z,100383.88
2022-12-05T06:16:18.970Z,100383.41
2022-12-05T06:17:20.556Z,100385.09
2022-12-05T06:18:22.027Z,100383.19
2022-12-05T06:19:23.506Z,100388.47
2022-12-05T06:20:25.069Z,100389.56
2022-12-05T06:21:26.731Z,100386.78
2022-12-05T06:22:28.233Z,100384.00
2022-12-05T06:23:29.694Z,100389.56
2022-12-05T06:24:31.248Z,100380.41
2022-12-05T06:25:32.698Z,100389.56
2022-12-05T06:26:34.164Z,100386.78
2022-12-05T06:27:35.669Z,100387.63
2022-12-05T06:28:39.389Z,100394.03
2022-12-05T06:29:40.958Z,100399.56
2022-12-05T06:30:42.467Z,100406.81
2022-12-05T06:31:44.133Z,100409.00
2022-12-05T06:32:45.688Z,100403.31
2022-12-05T06:33:47.173Z,100411.63
2022-12-05T06:34:48.641Z,100410.44
2022-12-05T06:35:57.237Z,100409.34
2022-12-05T06:36:59.767Z,100406.81
2022-12-05T06:38:01.291Z,100407.91
2022-12-05T06:39:02.886Z,100416.34
2022-12-05T06:40:04.658Z,100409.59
2022-12-05T06:41:06.636Z,100412.50
2022-12-05T06:42:08.194Z,100416.34
2022-12-05T06:43:09.959Z,100418.63
2022-12-05T06:44:11.504Z,100413.41
2022-12-05T06:45:13.101Z,100416.69
2022-12-05T06:46:14.690Z,100407.88
2022-12-05T06:47:16.254Z,100416.06
2022-12-05T06:48:17.714Z,100409.53
2022-12-05T06:49:19.181Z,100411.25
2022-12-05T06:50:20.777Z,100404.38
2022-12-05T06:51:22.377Z,100405.47
2022-12-05T06:52:23.897Z,100412.09
2022-12-05T06:53:25.440Z,100411.63
2022-12-05T06:54:26.950Z,100412.22
2022-12-05T06:55:28.472Z,100418.34
2022-12-05T06:56:30.026Z,100413.91
2022-12-05T06:57:31.520Z,100422.56
2022-12-05T06:58:32.999Z,100420.41
2022-12-05T06:59:34.509Z,100420.03
2022-12-05T07:00:54.765Z,100421.34
2022-12-05T07:01:56.358Z,100424.47
2022-12-05T07:02:57.921Z,100433.78
2022-12-05T07:03:59.481Z,100433.19
2022-12-05T07:05:00.978Z,100421.38
2022-12-05T07:06:02.864Z,100419.56
2022-12-05T07:07:04.351Z,100427.44
2022-12-05T07:08:05.970Z,100428.72
2022-12-05T07:09:07.553Z,100416.19
2022-12-05T07:10:09.075Z,100424.06
2022-12-05T07:11:10.563Z,100423.41
2022-12-05T07:12:12.603Z,100434.63
2022-12-05T07:13:15.797Z,100427.75
2022-12-05T07:14:38.829Z,100430.06
2022-12-05T07:15:39.387Z,100435.75
2022-12-05T07:16:40.943Z,100442.22
2022-12-05T07:17:42.413Z,100441.88
2022-12-05T07:18:43.886Z,100443.78
2022-12-05T07:19:47.118Z,100442.34
2022-12-05T07:21:12.485Z,100450.91
2022-12-05T07:22:16.175Z,100448.59
2022-12-05T07:23:17.847Z,100450.16
2022-12-05T07:24:19.468Z,100445.44
2022-12-05T07:25:22.523Z,100458.59
2022-12-05T07:26:24.030Z,100445.72
2022-12-05T07:27:28.008Z,100446.31
2022-12-05T07:28:29.766Z,100452.13
2022-12-05T07:29:31.384Z,100455.59
2022-12-05T07:30:32.910Z,100463.41
2022-12-05T07:31:34.434Z,100463.03
2022-12-05T07:32:35.981Z,100462.19
2022-12-05T07:33:37.530Z,100473.66
2022-12-05T07:34:39.077Z,100461.13
2022-12-05T07:35:40.794Z,100469.78
2022-12-05T07:36:42.287Z,100468.47
2022-12-05T07:37:43.831Z,100451.31
2022-12-05T07:38:45.396Z,100469.22
2022-12-05T07:39:46.852Z,100467.06
2022-12-05T07:40:48.412Z,100468.16
2022-12-05T07:41:50.002Z,100471.00
2022-12-05T07:42:53.425Z,100471.84
2022-12-05T07:43:55.381Z,100476.47
2022-12-05T07:44:56.874Z,100472.84
2022-12-05T07:46:01.591Z,100476.06
2022-12-05T07:47:03.190Z,100474.53
2022-12-05T07:48:04.853Z,100474.53
2022-12-05T07:49:06.993Z,100472.44
2022-12-05T07:50:08.682Z,100480.41
2022-12-05T07:51:10.334Z,100485.59
2022-12-05T07:52:11.857Z,100477.75
2022-12-05T07:53:13.351Z,100477.97
2022-12-05T07:54:14.789Z,100487.16
2022-12-05T07:55:16.290Z,100482.81
2022-12-05T07:56:18.243Z,100484.75
2022-12-05T07:57:19.742Z,100471.00
2022-12-05T07:58:21.230Z,100483.41
2022-12-05T07:59:22.763Z,100478.72
2022-12-05T08:00:24.313Z,100479.56
2022-12-05T08:01:26.550Z,100469.91
2022-12-05T08:02:28.388Z,100468.38
2022-12-05T08:03:29.882Z,100469.34
2022-12-05T08:04:31.342Z,100473.81
2022-12-05T08:05:33.400Z,100474.41
2022-12-05T08:06:34.886Z,100475.00
2022-12-05T08:07:36.399Z,100475.97
2022-12-05T08:08:38.041Z,100478.75
2022-12-05T08:09:39.499Z,100478.88
2022-12-05T08:10:41.065Z,100485.63
2022-12-05T08:11:42.582Z,100480.31
2022-12-05T08:12:44.082Z,100484.53
2022-12-05T08:13:45.616Z,100490.09
2022-12-05T08:14:47.144Z,100499.84
2022-12-05T08:15:48.588Z,100494.78
2022-12-05T08:16:50.173Z,100493.53
2022-12-05T08:17:51.730Z,100491.84
2022-12-05T08:18:56.776Z,100497.78
2022-12-05T08:19:58.557Z,100498.25
2022-12-05T08:21:03.692Z,100494.41
2022-12-05T08:22:05.247Z,100498.16
2022-12-05T08:23:06.742Z,100501.84
2022-12-05T08:24:08.411Z,100505.91
2022-12-05T08:25:10.133Z,100504.81
2022-12-05T08:26:11.639Z,100500.03
2022-12-05T08:27:13.115Z,100498.84
2022-12-05T08:28:14.638Z,100493.28
2022-12-05T08:29:16.351Z,100495.81
2022-12-05T08:30:17.990Z,100502.09
2022-12-05T08:31:19.873Z,100495.47
2022-12-05T08:32:21.375Z,100505.72
2022-12-05T08:33:22.819Z,100499.72
2022-12-05T08:34:24.386Z,100503.09
2022-12-05T08:35:26.253Z,100507.09
2022-12-05T08:36:28.452Z,100507.91
2022-12-05T08:37:30.014Z,100502.53
2022-12-05T08:38:31.528Z,100502.28
2022-12-05T08:39:38.108Z,100509.53
2022-12-05T08:40:40.301Z,100506.28
2022-12-05T08:41:44.851Z,100513.88
2022-12-05T08:42:46.964Z,100518.53
2022-12-05T08:43:48.796Z,100523.38
2022-12-05T08:44:51.137Z,100520.75
2022-12-05T08:45:52.868Z,100520.25
2022-12-05T08:46:54.375Z,100524.25
2022-12-05T08:47:55.960Z,100531.75
2022-12-05T08:48:57.564Z,100526.56
2022-12-05T08:49:59.447Z,100521.84
2022-12-05T08:51:04.767Z,100520.53
2022-12-05T08:52:06.219Z,100523.66
2022-12-05T08:53:07.666Z,100528.84
2022-12-05T08:54:09.198Z,100528.00
2022-12-05T08:55:10.708Z,100527.75
2022-12-05T08:56:12.222Z,100530.78
2022-12-05T08:57:13.783Z,100532.47
2022-12-05T08:58:15.310Z,100531.38
2022-12-05T08:59:16.831Z,100535.63
2022-12-05T09:00:20.101Z,100527.91
2022-12-05T09:01:22.028Z,100534.66
2022-12-05T09:02:23.631Z,100531.66
2022-12-05T09:03:25.147Z,100531.41
2022-12-05T09:04:27.006Z,100523.47
2022-12-05T09:05:29.659Z,100525.75
2022-12-05T09:06:31.346Z,100525.28
2022-12-05T09:07:32.880Z,100525.88
2022-12-05T09:08:34.433Z,100528.41
2022-12-05T09:09:35.986Z,100536.50
2022-12-05T09:10:37.926Z,100533.50
2022-12-05T09:11:41.450Z,100533.03
2022-12-05T09:12:42.986Z,100536.88
2022-12-05T09:13:44.627Z,100543.97
2022-12-05T09:14:49.285Z,100541.69
2022-12-05T09:15:50.870Z,100545.19
2022-12-05T09:16:52.437Z,100551.44
2022-12-05T09:17:53.912Z,100545.53
2022-12-05T09:18:55.417Z,100561.94
2022-12-05T09:19:57.121Z,100550.56
2022-12-05T09:20:58.603Z,100548.16
2022-12-05T09:22:00.149Z,100557.78
2022-12-05T09:23:01.596Z,100551.16
2022-12-05T09:24:03.442Z,100549.47
2022-12-05T09:25:05.147Z,100548.16
2022-12-05T09:26:06.850Z,100555.75
2022-12-05T09:27:08.347Z,100548.41
2022-12-05T09:28:09.857Z,100552.88
2022-12-05T09:29:16.124Z,100560.72
2022-12-05T09:30:18.036Z,100565.53
2022-12-05T09:31:20.454Z,100559.75
2022-12-05T09:32:21.996Z,100563.16
2022-12-05T09:33:23.611Z,100559.31
2022-12-05T09:34:26.079Z,100557.63
2022-12-05T09:35:27.633Z,100557.13
2022-12-05T09:36:29.634Z,100560.84
2022-12-05T09:37:39.290Z,100562.41
2022-12-05T09:38:41.414Z,100565.78
2022-12-05T09:39:43.381Z,100560.59
2022-12-05T09:40:44.894Z,100564.00
2022-12-05T09:42:04.746Z,100557.97
2022-12-05T09:43:06.537Z,100561.59
2022-12-05T09:44:09.444Z,100559.19
2022-12-05T09:45:14.530Z,100562.19
2022-12-05T09:46:18.547Z,100568.56
2022-12-05T09:47:20.155Z,100564.47
2022-12-05T09:48:21.658Z,100555.03
2022-12-05T09:49:23.126Z,100557.22
2022-12-05T09:50:32.342Z,100553.75
2022-12-05T09:51:33.835Z,100548.22
2022-12-05T09:52:37.777Z,100555.91
2022-12-05T09:53:39.846Z,100558.91
2022-12-05T09:54:41.307Z,100553.50
2022-12-05T09:55:56.144Z,100561.59
2022-12-05T09:56:58.774Z,100555.44
2022-12-05T09:58:00.598Z,100562.06
2022-12-05T09:59:02.112Z,100558.06
2022-12-05T10:00:04.545Z,100563.16
2022-12-05T10:01:24.711Z,100559.91
2022-12-05T10:02:29.630Z,100557.25
2022-12-05T10:03:34.401Z,100562.31
2022-12-05T10:05:00.414Z,100561.31
2022-12-05T10:06:16.024Z,100554.69
2022-12-05T10:07:22.322Z,100558.47
2022-12-05T10:08:25.721Z,100549.41
2022-12-05T10:09:39.041Z,100558.47
2022-12-05T10:10:46.750Z,100552.19
2022-12-05T10:11:57.446Z,100554.72
2022-12-05T10:13:06.602Z,100550.03
2022-12-05T10:14:20.105Z,100558.16
2022-12-05T10:15:29.499Z,100555.22
2022-12-05T10:16:32.616Z,100560.16
2022-12-05T10:17:38.044Z,100562.31
2022-12-05T10:18:45.434Z,100561.25
2022-12-05T10:19:47.544Z,100564.03
2022-12-05T10:20:51.005Z,100569.19
2022-12-05T10:21:56.665Z,100567.66
2022-12-05T10:22:59.358Z,100569.34
2022-12-05T10:24:01.882Z,100556.91
2022-12-05T10:25:04.190Z,100560.16
2022-12-05T10:26:06.312Z,100554.47
2022-12-05T10:27:08.461Z,100553.38
2022-12-05T10:28:11.747Z,100562.78
2022-12-05T10:29:22.430Z,100552.06
2022-12-05T10:30:24.418Z,100557.63
2022-12-05T10:31:27.317Z,100559.75
2022-12-05T10:32:30.414Z,100553.00
2022-12-05T10:33:34.151Z,100555.91
2022-12-05T10:34:38.887Z,100553.59
2022-12-05T10:35:40.682Z,100550.72
2022-12-05T10:36:50.545Z,100558.31
2022-12-05T10:37:53.263Z,100547.13
2022-12-05T10:38:56.755Z,100550.84
2022-12-05T10:39:58.251Z,100542.88
2022-12-05T10:41:00.643Z,100547.97
2022-12-05T10:42:02.101Z,100545.81
2022-12-05T10:43:04.494Z,100551.97
2022-12-05T10:44:06.054Z,100542.44
2022-12-05T10:45:08.694Z,100546.91
2022-12-05T10:46:14.096Z,100555.56
2022-12-05T10:47:18.542Z,100545.94
2022-12-05T10:48:20.287Z,100545.47
2022-12-05T10:49:21.731Z,100549.97
2022-12-05T10:50:32.771Z,100542.19
2022-12-05T10:51:37.754Z,100548.25
2022-12-05T10:52:39.528Z,100547.63
2022-12-05T10:53:42.090Z,100552.09
2022-12-05T10:54:44.994Z,100550.31
2022-12-05T10:56:06.398Z,100547.66
2022-12-05T10:57:21.819Z,100549.13
2022-12-05T10:58:27.222Z,100550.56
2022-12-05T10:59:44.239Z,100551.66
2022-12-05T11:00:48.204Z,100548.63
2022-12-05T11:01:57.030Z,100545.59
2022-12-05T11:02:58.820Z,100546.69
2022-12-05T11:04:13.746Z,100546.16
2022-12-05T11:05:15.580Z,100546.91
2022-12-05T11:06:18.474Z,100546.50
2022-12-05T11:07:24.123Z,100539.06
2022-12-05T11:08:48.210Z,100536.88
2022-12-05T11:09:48.290Z,100537.63
2022-12-05T11:10:49.768Z,100544.41
2022-12-05T11:12:00.441Z,100543.44
2022-12-05T11:13:02.259Z,100538.63
2022-12-05T11:14:23.945Z,100531.38
2022-12-05T11:15:26.346Z,100537.63
2022-12-05T11:16:35.854Z,100539.31
2022-12-05T11:17:38.422Z,100539.91
2022-12-05T11:18:41.936Z,100538.22
2022-12-05T11:19:43.427Z,100543.06
2022-12-05T11:20:44.941Z,100538.97
2022-12-05T11:21:46.397Z,100542.00
2022-12-05T11:22:51.571Z,100547.28
2022-12-05T11:23:53.401Z,100540.53
2022-12-05T11:24:55.079Z,100543.06
2022-12-05T11:25:57.169Z,100537.78
2022-12-05T11:26:59.494Z,100542.59
2022-12-05T11:28:10.206Z,100541.16
2022-12-05T11:29:30.849Z,100540.91
2022-12-05T11:30:32.398Z,100537.88
2022-12-05T11:31:33.910Z,100538.47
2022-12-05T11:32:35.414Z,100535.94
2022-12-05T11:33:36.981Z,100534.00
2022-12-05T11:34:40.334Z,100543.19
2022-12-05T11:35:41.844Z,100528.09
2022-12-05T11:36:48.563Z,100541.63
2022-12-05T11:37:49.994Z,100535.00
2022-12-05T11:38:51.487Z,100537.53
2022-12-05T11:39:53.086Z,100538.97
2022-12-05T11:40:57.930Z,100535.69
2022-12-05T11:41:59.422Z,100540.56
2022-12-05T11:43:08.443Z,100534.63
2022-12-05T11:44:09.919Z,100528.97
2022-12-05T11:45:14.391Z,100528.72
2022-12-05T11:46:22.245Z,100539.31
2022-12-05T11:47:32.795Z,100533.53
2022-12-05T11:48:34.671Z,100540.31
2022-12-05T11:49:43.151Z,100538.72
2022-12-05T11:50:52.841Z,100546.31
2022-12-05T11:51:54.304Z,100533.41
2022-12-05T11:52:58.576Z,100535.09
2022-12-05T11:54:15.499Z,100530.28
2022-12-05T11:55:20.596Z,100528.72
2022-12-05T11:56:28.163Z,100530.03
2022-12-05T11:57:29.642Z,100533.41
2022-12-05T11:58:57.104Z,100526.66
2022-12-05T12:00:17.491Z,100531.25
2022-12-05T12:01:30.914Z,100533.28
2022-12-05T12:02:32.735Z,100530.50
2022-12-05T12:03:53.068Z,100530.50
2022-12-05T12:04:58.219Z,100531.13
2022-12-05T12:06:12.089Z,100532.81
2022-12-05T12:07:33.912Z,100525.34
2022-12-05T12:09:10.985Z,100530.88
2022-12-05T12:10:24.579Z,100529.22